Аэропорт: Большое Савино. Пермь

ICAO: USPP

METAR:
2021-07-28 14:30:00
USPP 281430Z 34004MPS 300V060 CAVOK 15/07 Q1012 R21/090060 NOSIG RMK QFE748
METAR:
2021-07-28 10:55:00
TAF USPP 281055Z 2812/2912 31003G14MPS 9999 BKN030 TEMPO 2812/2815 -SHRA BKN016CB BECMG 2816/2818 23003G08MPS